Time;durP1;ratioP1;P1;durP2;ratioP2;P2;SDS_P1;SDS_P2;PMS_P1;PMS_P2;Temp;Humidity;BMP_temperature;BMP_pressure;BME280_temperature;BME280_humidity;BME280_pressure;Samples;Min_cycle;Max_cycle;Signal;HPM_P1;HPM_P2
2022/04/12 00:01:08;;;;;;;12.32;8.50;;;;;;;;;;5029976;28;20422;-72
2022/04/12 00:03:34;;;;;;;12.63;8.70;;;;;;;;;;5032791;28;20430;-71
2022/04/12 00:06:00;;;;;;;13.75;8.55;;;;;;;;;;5034656;28;20434;-72
2022/04/12 00:08:27;;;;;;;12.73;8.50;;;;;;;;;;5032650;28;20758;-72
2022/04/12 00:10:53;;;;;;;11.25;8.63;;;;;;;;;;5034604;28;20820;-71
2022/04/12 00:13:19;;;;;;;12.95;8.55;;;;;;;;;;5001688;28;20439;-72
2022/04/12 00:15:48;;;;;;;12.50;8.38;;;;;;;;;;5034826;28;20423;-71
2022/04/12 00:20:59;;;;;;;13.68;8.82;;;;;;;;;;5016118;28;20532;-71
2022/04/12 00:23:25;;;;;;;13.15;8.40;;;;;;;;;;5034683;28;20419;-71
2022/04/12 00:25:53;;;;;;;13.13;8.32;;;;;;;;;;5035661;28;20429;-71
2022/04/12 00:28:19;;;;;;;12.43;8.85;;;;;;;;;;5034271;28;20431;-72
2022/04/12 00:30:45;;;;;;;13.07;8.60;;;;;;;;;;5032915;28;20501;-71
2022/04/12 00:33:12;;;;;;;11.35;8.20;;;;;;;;;;5033781;28;20514;-72
2022/04/12 00:35:38;;;;;;;12.63;8.18;;;;;;;;;;5018685;28;20426;-71
2022/04/12 00:38:17;;;;;;;12.43;8.60;;;;;;;;;;5032437;28;20481;-72
2022/04/12 00:40:44;;;;;;;11.35;8.50;;;7.40;99.90;;;;;;5030651;28;20431;-71
2022/04/12 00:43:11;;;;;;;13.18;8.32;;;;;;;;;;5035388;28;20461;-72
2022/04/12 00:45:37;;;;;;;12.40;8.80;;;;;;;;;;5034956;28;20455;-71
2022/04/12 00:48:03;;;;;;;11.82;8.85;;;;;;;;;;5015303;28;20448;-71
2022/04/12 00:50:29;;;;;;;12.15;8.38;;;;;;;;;;5032683;28;20431;-71
2022/04/12 00:52:57;;;;;;;12.82;8.88;;;7.10;99.90;;;;;;5036069;28;20748;-74
2022/04/12 00:55:23;;;;;;;10.60;8.33;;;;;;;;;;5018259;28;20531;-71
2022/04/12 00:57:51;;;;;;;12.63;8.63;;;7.30;99.90;;;;;;5029218;28;20443;-72
2022/04/12 01:00:18;;;;;;;14.20;8.60;;;;;;;;;;5030202;28;20442;-72
2022/04/12 01:02:44;;;;;;;13.57;9.40;;;;;;;;;;5014763;28;20906;-72
2022/04/12 01:05:10;;;;;;;13.05;8.52;;;;;;;;;;5034020;28;20418;-71
2022/04/12 01:07:37;;;;;;;15.35;9.10;;;;;;;;;;5033633;28;20426;-72
2022/04/12 01:10:04;;;;;;;13.65;9.13;;;6.90;99.90;;;;;;5010733;28;20438;-71
2022/04/12 01:12:38;;;;;;;12.15;9.13;;;;;;;;;;5032379;28;20423;-71
2022/04/12 01:15:23;;;;;;;13.80;9.13;;;;;;;;;;5017198;28;20462;-72
2022/04/12 01:17:50;;;;;;;12.30;8.75;;;;;;;;;;5032855;28;20423;-71
2022/04/12 01:20:19;;;;;;;16.70;9.20;;;6.70;99.90;;;;;;5047699;28;20435;-71
2022/04/12 01:23:04;;;;;;;15.55;9.40;;;;;;;;;;5032534;28;20426;-72
2022/04/12 01:25:30;;;;;;;11.60;9.05;;;;;;;;;;5033500;28;20706;-72
2022/04/12 01:27:56;;;;;;;14.77;9.60;;;;;;;;;;5034536;28;20426;-72
2022/04/12 01:30:22;;;;;;;15.18;9.45;;;;;;;;;;5030216;28;20493;-72
2022/04/12 01:32:48;;;;;;;14.40;9.40;;;;;;;;;;5016278;28;20748;-72
2022/04/12 01:35:14;;;;;;;12.57;9.10;;;;;;;;;;5048063;28;20925;-72
2022/04/12 01:37:41;;;;;;;12.23;9.27;;;;;;;;;;5016652;28;20438;-72
2022/04/12 01:40:09;;;;;;;14.70;9.70;;;;;;;;;;5031686;28;20427;-71
2022/04/12 01:42:35;;;;;;;13.07;9.05;;;;;;;;;;5032948;28;20558;-72
2022/04/12 01:45:01;;;;;;;12.53;9.67;;;;;;;;;;5033651;28;20475;-71
2022/04/12 01:47:27;;;;;;;14.00;9.50;;;;;;;;;;5032472;28;20419;-72
2022/04/12 01:49:54;;;;;;;13.73;9.52;;;;;;;;;;5023064;28;20518;-71
2022/04/12 01:52:20;;;;;;;13.60;9.52;;;;;;;;;;5004472;28;20493;-72
2022/04/12 01:54:46;;;;;;;13.50;9.67;;;;;;;;;;5017506;28;20425;-71
2022/04/12 01:57:12;;;;;;;13.23;9.85;;;;;;;;;;5016471;28;20778;-72
2022/04/12 01:59:38;;;;;;;13.82;10.20;;;;;;;;;;5012507;28;20430;-71
2022/04/12 02:02:04;;;;;;;14.77;9.93;;;;;;;;;;5017617;28;20434;-72
2022/04/12 02:04:30;;;;;;;15.05;10.25;;;;;;;;;;4998115;28;20464;-72
2022/04/12 02:06:56;;;;;;;15.00;10.60;;;;;;;;;;5015477;28;20434;-71
2022/04/12 02:09:22;;;;;;;15.00;10.10;;;;;;;;;;4977111;28;20517;-72
2022/04/12 02:11:48;;;;;;;14.43;10.13;;;;;;;;;;5019363;28;20434;-72
2022/04/12 02:14:15;;;;;;;16.25;10.32;;;;;;;;;;5002318;28;20434;-72
2022/04/12 02:16:41;;;;;;;14.57;10.13;;;;;;;;;;5017389;28;20438;-72
2022/04/12 02:19:07;;;;;;;15.07;10.60;;;;;;;;;;5002041;28;20441;-72
2022/04/12 02:21:33;;;;;;;14.10;10.57;;;;;;;;;;5019393;28;20437;-72
2022/04/12 02:23:59;;;;;;;16.15;10.70;;;;;;;;;;5016652;28;20472;-71
2022/04/12 02:26:25;;;;;;;17.38;10.93;;;;;;;;;;5016968;28;20476;-72
2022/04/12 02:28:51;;;;;;;14.27;11.20;;;;;;;;;;4950767;28;20433;-72
2022/04/12 02:31:17;;;;;;;13.73;10.55;;;;;;;;;;5012664;28;20778;-71
2022/04/12 02:33:43;;;;;;;16.75;10.98;;;;;;;;;;5020645;28;20433;-71
2022/04/12 02:36:09;;;;;;;16.37;11.70;;;;;;;;;;4999620;28;20437;-72
2022/04/12 02:38:35;;;;;;;15.82;10.43;;;;;;;;;;5012709;28;20428;-71
2022/04/12 02:41:01;;;;;;;16.55;10.73;;;;;;;;;;5018747;28;20651;-71
2022/04/12 02:43:27;;;;;;;15.98;11.15;;;;;;;;;;5016202;28;20434;-72
2022/04/12 02:45:53;;;;;;;18.63;10.98;;;;;;;;;;5001692;28;20925;-72
2022/04/12 02:48:19;;;;;;;17.60;11.32;;;;;;;;;;4984448;28;20448;-72
2022/04/12 02:50:45;;;;;;;14.18;11.00;;;;;;;;;;5001852;28;20489;-72
2022/04/12 02:53:12;;;;;;;18.85;11.18;;;;;;;;;;4929945;28;21058;-72
2022/04/12 02:55:38;;;;;;;15.98;11.05;;;;;;;;;;5016098;28;20491;-72
2022/04/12 02:58:04;;;;;;;15.55;11.10;;;;;;;;;;5018543;28;20937;-72
2022/04/12 03:00:30;;;;;;;14.73;11.10;;;;;;;;;;5017268;28;20443;-72
2022/04/12 03:02:56;;;;;;;17.35;11.43;;;;;;;;;;5010864;28;20755;-72
2022/04/12 03:05:22;;;;;;;17.60;11.85;;;;;;;;;;4950567;28;20933;-73
2022/04/12 03:07:48;;;;;;;16.92;11.90;;;;;;;;;;5003008;28;20426;-72
2022/04/12 03:10:14;;;;;;;17.55;12.00;;;;;;;;;;5014379;28;20837;-72
2022/04/12 03:12:40;;;;;;;14.80;11.60;;;;;;;;;;5018208;28;20840;-72
2022/04/12 03:15:08;;;;;;;16.50;11.95;;;;;;;;;;5019126;28;20736;-72
2022/04/12 03:17:35;;;;;;;15.80;11.40;;;;;;;;;;5033467;28;20491;-72
2022/04/12 03:20:01;;;;;;;15.80;11.43;;;;;;;;;;5011579;28;20453;-72
2022/04/12 03:22:27;;;;;;;16.75;12.43;;;;;;;;;;5002802;28;20445;-72
2022/04/12 03:24:54;;;;;;;18.30;12.82;;;;;;;;;;4954154;28;20421;-72
2022/04/12 03:27:20;;;;;;;16.90;12.18;;;;;;;;;;5018634;28;20429;-72
2022/04/12 03:29:46;;;;;;;16.02;11.18;;;;;;;;;;5014795;28;20430;-72
2022/04/12 03:32:12;;;;;;;16.42;11.68;;;;;;;;;;5015933;28;20436;-71
2022/04/12 03:34:40;;;;;;;16.08;11.73;;;;;;;;;;5001340;28;20821;-72
2022/04/12 03:37:06;;;;;;;16.58;11.90;;;;;;;;;;5000025;28;20434;-72
2022/04/12 03:39:32;;;;;;;17.23;12.03;;;;;;;;;;5003010;28;20438;-72
2022/04/12 03:41:58;;;;;;;17.23;11.88;;;;;;;;;;5016828;28;20440;-72
2022/04/12 03:44:25;;;;;;;14.80;11.43;;;;;;;;;;4965829;28;20770;-72
2022/04/12 03:46:51;;;;;;;16.02;11.68;;;;;;;;;;5013626;28;20437;-72
2022/04/12 03:49:17;;;;;;;17.48;11.70;;;;;;;;;;5005833;28;20521;-72
2022/04/12 03:51:43;;;;;;;16.35;12.45;;;;;;;;;;4935316;28;20434;-72
2022/04/12 03:54:09;;;;;;;18.60;12.13;;;;;;;;;;5018998;28;20449;-72
2022/04/12 03:56:35;;;;;;;17.93;12.30;;;;;;;;;;4949770;28;20991;-72
2022/04/12 03:59:02;;;;;;;16.55;11.90;;;;;;;;;;5018535;28;20757;-71
2022/04/12 04:01:28;;;;;;;17.42;12.10;;;;;;;;;;5019843;28;20509;-71
2022/04/12 04:03:58;;;;;;;18.05;12.00;;;;;;;;;;5017996;28;20422;-74
2022/04/12 04:06:25;;;;;;;16.77;12.23;;;;;;;;;;5010962;28;20433;-71
2022/04/12 04:08:51;;;;;;;16.30;12.25;;;;;;;;;;5015325;28;20690;-71
2022/04/12 04:11:17;;;;;;;16.20;12.13;;;;;;;;;;5019877;28;20476;-71
2022/04/12 04:13:43;;;;;;;16.80;12.27;;;;;;;;;;5029492;28;20410;-71
2022/04/12 04:16:09;;;;;;;17.88;12.57;;;;;;;;;;5019064;28;20479;-71
2022/04/12 04:18:35;;;;;;;16.10;12.18;;;;;;;;;;5022650;28;20937;-71
2022/04/12 04:21:02;;;;;;;19.33;12.40;;;;;;;;;;5022662;28;20453;-71
2022/04/12 04:23:28;;;;;;;17.08;12.40;;;;;;;;;;5018109;28;20525;-71
2022/04/12 04:25:54;;;;;;;16.70;11.75;;;;;;;;;;5018803;28;20432;-71
2022/04/12 04:28:23;;;;;;;16.90;12.60;;;;;;;;;;5005478;28;20980;-71
2022/04/12 04:30:50;;;;;;;16.88;12.70;;;;;;;;;;5018392;28;20434;-74
2022/04/12 04:33:17;;;;;;;16.73;12.40;;;5.70;99.90;;;;;;5004386;28;20462;-71
2022/04/12 04:35:43;;;;;;;16.27;11.80;;;;;;;;;;4954171;28;20430;-73
2022/04/12 04:38:10;;;;;;;16.80;12.90;;;;;;;;;;5019567;28;20429;-73
2022/04/12 04:40:36;;;;;;;16.95;12.45;;;;;;;;;;5005547;28;20929;-73
2022/04/12 04:43:02;;;;;;;16.58;12.88;;;;;;;;;;5013692;28;20421;-73
2022/04/12 04:45:29;;;;;;;18.08;13.02;;;;;;;;;;5019101;28;20434;-74
2022/04/12 04:47:56;;;;;;;16.33;12.27;;;5.80;99.90;;;;;;5016211;28;20437;-73
2022/04/12 04:50:27;;;;;;;17.73;12.80;;;5.70;99.90;;;;;;5004654;28;20442;-73
2022/04/12 04:52:54;;;;;;;16.73;12.63;;;;;;;;;;5021299;28;20442;-73
2022/04/12 04:55:20;;;;;;;17.70;12.98;;;;;;;;;;5019974;28;20457;-73
2022/04/12 04:57:46;;;;;;;19.42;12.93;;;;;;;;;;5000448;28;20445;-74
2022/04/12 05:00:17;;;;;;;17.13;12.25;;;;;;;;;;5022228;28;20449;-73
2022/04/12 05:02:50;;;;;;;16.40;12.55;;;5.60;99.90;;;;;;5009272;28;20433;-73
2022/04/12 05:05:16;;;;;;;17.75;13.18;;;;;;;;;;5019088;28;20933;-73
2022/04/12 05:07:43;;;;;;;18.77;13.07;;;;;;;;;;5019705;28;20434;-76
2022/04/12 05:10:13;;;;;;;19.08;13.65;;;5.40;99.90;;;;;;5008307;28;20782;-73
2022/04/12 05:12:39;;;;;;;18.70;13.45;;;;;;;;;;5004753;28;20437;-73
2022/04/12 05:15:06;;;;;;;19.20;14.23;;;;;;;;;;5017242;28;20817;-73
2022/04/12 05:17:32;;;;;;;17.33;13.73;;;;;;;;;;5005251;28;20438;-74
2022/04/12 05:19:58;;;;;;;17.38;13.63;;;;;;;;;;5019856;28;20446;-73
2022/04/12 05:22:24;;;;;;;17.45;12.60;;;;;;;;;;4960379;28;20433;-74
2022/04/12 05:24:50;;;;;;;17.33;13.38;;;;;;;;;;5017456;28;20429;-73
2022/04/12 05:27:17;;;;;;;17.67;12.57;;;;;;;;;;5017284;28;20430;-74
2022/04/12 05:29:43;;;;;;;17.75;13.63;;;;;;;;;;5017718;28;20929;-74
2022/04/12 05:32:09;;;;;;;19.37;13.30;;;;;;;;;;5018483;28;20429;-74
2022/04/12 05:34:42;;;;;;;20.35;13.40;;;;;;;;;;5015939;28;20547;-74
2022/04/12 05:37:08;;;;;;;16.33;12.33;;;;;;;;;;5002802;28;20440;-74
2022/04/12 05:39:34;;;;;;;17.63;12.63;;;;;;;;;;5005653;28;21030;-75
2022/04/12 05:42:01;;;;;;;18.25;13.27;;;;;;;;;;5016048;28;20433;-73
2022/04/12 05:44:27;;;;;;;18.83;13.27;;;;;;;;;;5012677;28;20437;-74
2022/04/12 05:46:54;;;;;;;18.38;12.85;;;;;;;;;;4991865;28;20434;-74
2022/04/12 05:49:20;;;;;;;17.97;12.73;;;;;;;;;;5008028;28;21222;-75
2022/04/12 05:51:46;;;;;;;16.52;12.18;;;;;;;;;;5015324;28;20436;-75
2022/04/12 05:54:12;;;;;;;14.82;11.32;;;;;;;;;;5002724;28;20459;-74
2022/04/12 05:56:38;;;;;;;14.70;11.80;;;;;;;;;;5014764;28;20921;-74
2022/04/12 05:59:06;;;;;;;16.02;11.85;;;;;;;;;;5013983;28;20429;-76
2022/04/12 06:01:32;;;;;;;17.90;12.23;;;;;;;;;;5013204;28;20516;-75
2022/04/12 06:03:58;;;;;;;15.85;11.75;;;;;;;;;;5003314;28;20531;-74
2022/04/12 06:06:24;;;;;;;17.65;12.85;;;;;;;;;;4997383;28;20917;-74
2022/04/12 06:08:51;;;;;;;17.00;12.05;;;;;;;;;;4948334;28;20780;-73
2022/04/12 06:11:17;;;;;;;18.77;13.00;;;;;;;;;;5010179;28;20446;-74
2022/04/12 06:13:43;;;;;;;16.47;11.73;;;;;;;;;;4977222;28;20455;-74
2022/04/12 06:16:09;;;;;;;14.88;11.85;;;;;;;;;;4998517;28;20440;-74
2022/04/12 06:18:35;;;;;;;19.27;12.38;;;;;;;;;;5008824;28;20447;-73
2022/04/12 06:21:01;;;;;;;17.13;12.10;;;;;;;;;;5006909;28;20438;-74
2022/04/12 06:23:28;;;;;;;15.60;12.40;;;;;;;;;;5010320;28;20438;-74
2022/04/12 06:25:55;;;;;;;16.15;12.05;;;;;;;;;;5011887;28;20437;-73
2022/04/12 06:28:21;;;;;;;14.40;11.73;;;;;;;;;;5011148;28;20524;-74
2022/04/12 06:30:50;;;;;;;15.05;11.20;;;;;;;;;;5011229;28;20457;-74
2022/04/12 06:33:16;;;;;;;15.63;11.63;;;;;;;;;;4995500;28;20430;-74
2022/04/12 06:35:42;;;;;;;17.63;11.63;;;;;;;;;;5013799;28;20446;-74
2022/04/12 06:38:10;;;;;;;17.33;12.50;;;;;;;;;;5013005;28;20609;-74
2022/04/12 06:40:36;;;;;;;18.00;12.55;;;;;;;;;;5010571;28;20438;-73
2022/04/12 06:43:02;;;;;;;17.70;11.77;;;;;;;;;;4995801;28;20512;-74
2022/04/12 06:45:28;;;;;;;15.43;11.23;;;;;;;;;;5014704;28;20429;-74
2022/04/12 06:47:55;;;;;;;15.77;11.27;;;;;;;;;;4993648;28;20465;-72
2022/04/12 06:50:22;;;;;;;15.95;11.57;;;;;;;;;;4976985;28;20438;-73
2022/04/12 06:52:48;;;;;;;18.33;11.70;;;;;;;;;;5014486;28;20429;-73
2022/04/12 06:55:16;;;;;;;15.50;12.00;;;;;;;;;;5001512;28;21011;-73
2022/04/12 06:57:43;;;;;;;18.00;12.20;;;;;;;;;;5009864;28;20488;-71
2022/04/12 07:00:09;;;;;;;14.73;11.00;;;;;;;;;;5013957;28;20429;-72
2022/04/12 07:02:36;;;;;;;17.02;12.05;;;;;;;;;;4954039;28;20505;-72
2022/04/12 07:05:03;;;;;;;16.87;11.67;;;;;;;;;;5005997;28;20434;-72
2022/04/12 07:07:29;;;;;;;15.32;11.52;;;;;;;;;;4948381;28;20418;-72
2022/04/12 07:09:55;;;;;;;15.55;11.98;;;;;;;;;;4946291;28;20437;-73
2022/04/12 07:12:21;;;;;;;17.50;11.40;;;;;;;;;;4948336;28;20905;-73
2022/04/12 07:14:49;;;;;;;14.85;11.73;;;;;;;;;;4942958;28;20859;-72
2022/04/12 07:17:15;;;;;;;14.77;11.00;;;;;;;;;;4955429;28;20525;-72
2022/04/12 07:19:41;;;;;;;15.10;11.27;;;;;;;;;;4943472;28;20805;-72
2022/04/12 07:22:09;;;;;;;16.97;11.53;;;;;;;;;;4998009;28;20431;-72
2022/04/12 07:24:35;;;;;;;16.63;11.15;;;;;;;;;;5012051;28;20430;-72
2022/04/12 07:27:01;;;;;;;15.52;10.77;;;;;;;;;;5011696;28;20458;-73
2022/04/12 07:29:27;;;;;;;15.35;10.43;;;;;;;;;;4944148;28;20443;-70
2022/04/12 07:31:53;;;;;;;14.52;10.75;;;;;;;;;;4946977;28;20434;-71
2022/04/12 07:34:20;;;;;;;15.63;10.63;;;;;;;;;;4947036;28;20848;-72
2022/04/12 07:36:53;;;;;;;14.30;11.15;;;;;;;;;;4991096;28;20437;-72
2022/04/12 07:39:23;;;;;;;15.82;10.07;;;;;;;;;;5003727;28;20438;-72
2022/04/12 07:41:50;;;;;;;15.32;10.85;;;;;;;;;;4945301;28;20438;-72
2022/04/12 07:44:17;;;;;;;14.00;9.80;;;;;;;;;;4974658;28;20453;-72
2022/04/12 07:46:44;;;;;;;13.13;10.02;;;;;;;;;;4967858;28;20450;-72
2022/04/12 07:49:10;;;;;;;14.75;10.65;;;;;;;;;;4947595;28;20808;-72
2022/04/12 07:51:37;;;;;;;14.50;10.10;;;;;;;;;;4947868;28;20471;-72
2022/04/12 07:54:04;;;;;;;12.02;9.55;;;;;;;;;;5015540;28;21117;-73
2022/04/12 07:56:31;;;;;;;12.93;10.57;;;;;;;;;;4949370;28;20429;-72
2022/04/12 07:58:57;;;;;;;13.52;9.98;;;;;;;;;;4950311;28;20425;-72
2022/04/12 08:01:23;;;;;;;14.10;10.00;;;;;;;;;;4950008;28;20488;-72
2022/04/12 08:03:49;;;;;;;13.45;9.70;;;;;;;;;;4947464;28;20434;-71
2022/04/12 08:06:15;;;;;;;19.77;10.13;;;11.20;99.90;;;;;;5015826;28;20433;-72
2022/04/12 08:08:41;;;;;;;13.75;10.02;;;;;;;;;;5013627;28;20422;-72
2022/04/12 08:11:07;;;;;;;13.73;10.57;;;;;;;;;;4949890;28;20477;-72
2022/04/12 08:13:33;;;;;;;13.30;9.77;;;;;;;;;;4951667;28;20436;-72
2022/04/12 08:16:00;;;;;;;14.00;9.43;;;;;;;;;;4949256;28;20426;-73
2022/04/12 08:18:26;;;;;;;14.10;9.10;;;;;;;;;;5018206;28;20433;-72
2022/04/12 08:20:54;;;;;;;14.98;9.60;;;;;;;;;;5012115;28;20445;-72
2022/04/12 08:23:24;;;;;;;11.35;9.00;;;;;;;;;;5015058;28;20438;-73
2022/04/12 08:25:51;;;;;;;13.55;9.48;;;;;;;;;;4950090;28;20529;-72
2022/04/12 08:28:17;;;;;;;12.68;9.00;;;;;;;;;;4946869;28;20519;-73
2022/04/12 08:30:43;;;;;;;13.68;9.25;;;;;;;;;;5013699;28;20758;-72
2022/04/12 08:33:09;;;;;;;11.40;8.17;;;;;;;;;;5014011;28;20941;-72
2022/04/12 08:35:35;;;;;;;13.15;9.88;;;;;;;;;;5017283;28;20520;-73
2022/04/12 08:38:01;;;;;;;11.73;8.68;;;;;;;;;;5013753;28;21048;-72
2022/04/12 08:40:27;;;;;;;12.05;9.30;;;;;;;;;;5010398;28;20438;-72
2022/04/12 08:42:54;;;;;;;11.88;8.35;;;;;;;;;;4949117;28;20430;-73
2022/04/12 08:45:21;;;;;;;11.80;8.48;;;;;;;;;;5012224;28;20445;-73
2022/04/12 08:47:47;;;;;;;12.85;9.32;;;;;;;;;;5011903;28;22747;-73
2022/04/12 08:50:13;;;;;;;12.38;8.50;;;;;;;;;;5013014;28;20447;-73
2022/04/12 08:52:39;;;;;;;13.83;9.30;;;13.00;99.90;;;;;;5010355;28;20446;-73
2022/04/12 08:55:09;;;;;;;12.25;8.48;;;;;;;;;;5005893;28;20438;-73
2022/04/12 08:57:35;;;;;;;11.90;8.60;;;;;;;;;;5005785;28;20521;-73
2022/04/12 09:00:01;;;;;;;11.85;8.48;;;;;;;;;;4996846;28;20445;-73
2022/04/12 09:02:27;;;;;;;11.57;8.50;;;;;;;;;;4946718;28;20505;-73
2022/04/12 09:04:53;;;;;;;12.07;8.35;;;13.80;99.90;;;;;;4992511;28;20518;-73
2022/04/12 09:07:25;;;;;;;12.18;8.98;;;14.10;99.90;;;;;;4997946;28;20910;-73
2022/04/12 09:09:52;;;;;;;11.70;8.17;;;13.90;99.90;;;;;;5010633;28;20935;-73
2022/04/12 09:12:18;;;;;;;11.93;8.88;;;;;;;;;;5013207;28;20426;-73
2022/04/12 09:14:46;;;;;;;12.45;8.35;;;;;;;;;;4982659;28;20438;-72
2022/04/12 09:17:39;;;;;;;10.52;8.18;;;14.50;99.90;;;;;;5012083;28;20440;-72
2022/04/12 09:20:14;;;;;;;12.40;8.15;;;14.40;99.90;;;;;;5028311;28;20495;-73
2022/04/12 09:22:40;;;;;;;12.27;8.32;;;14.50;99.90;;;;;;5011362;28;20438;-73
2022/04/12 09:25:07;;;;;;;12.95;8.38;;;;;;;;;;5015031;28;20430;-73
2022/04/12 09:27:35;;;;;;;12.00;8.63;;;;;;;;;;5024477;28;20486;-73
2022/04/12 09:30:03;;;;;;;11.05;7.70;;;14.50;99.90;;;;;;4998123;28;20526;-74
2022/04/12 09:32:30;;;;;;;11.50;8.13;;;;;;;;;;5012533;28;20929;-73
2022/04/12 09:34:57;;;;;;;10.38;7.60;;;15.00;99.90;;;;;;5015659;28;20441;-74
2022/04/12 09:37:24;;;;;;;12.50;7.82;;;;;;;;;;5025844;28;20429;-73
2022/04/12 09:39:54;;;;;;;11.20;7.83;;;;;;;;;;5011840;28;20422;-74
2022/04/12 09:42:42;;;;;;;11.52;7.75;;;15.10;99.90;;;;;;4999573;28;20769;-73
2022/04/12 09:45:11;;;;;;;9.93;7.73;;;15.30;99.90;;;;;;4991309;28;20440;-74
2022/04/12 09:47:38;;;;;;;10.73;7.43;;;;;;;;;;5012864;28;20430;-74
2022/04/12 09:50:05;;;;;;;11.50;7.53;;;15.30;99.90;;;;;;5015825;28;20438;-75
2022/04/12 09:52:31;;;;;;;11.63;8.00;;;15.50;99.90;;;;;;4947677;28;20449;-74
2022/04/12 09:54:58;;;;;;;12.70;8.35;;;;;;;;;;4942019;28;20446;-73
2022/04/12 09:57:25;;;;;;;11.82;8.32;;;15.60;99.90;;;;;;5012877;28;20512;-74
2022/04/12 09:59:56;;;;;;;15.60;8.38;;;15.80;99.90;;;;;;5015159;28;20434;-75
2022/04/12 10:02:26;;;;;;;12.77;7.85;;;15.80;99.90;;;;;;4945940;28;20422;-74
2022/04/12 10:04:53;;;;;;;11.27;8.10;;;15.70;99.90;;;;;;4947625;28;20778;-75
2022/04/12 10:07:21;;;;;;;13.83;8.50;;;15.70;99.90;;;;;;5013743;28;20433;-74
2022/04/12 10:09:49;;;;;;;12.05;7.90;;;16.00;99.90;;;;;;5014347;28;20445;-75
2022/04/12 10:12:17;;;;;;;11.35;8.30;;;;;;;;;;4998252;28;20430;-74
2022/04/12 10:14:43;;;;;;;11.20;8.30;;;15.90;99.90;;;;;;5011152;28;20427;-73
2022/04/12 10:17:10;;;;;;;12.02;8.05;;;;;;;;;;4995773;28;20578;-74
2022/04/12 10:19:36;;;;;;;11.60;8.02;;;;;;;;;;5011519;28;20442;-74
2022/04/12 10:22:03;;;;;;;11.15;8.40;;;15.60;99.90;;;;;;5011997;28;20438;-74
2022/04/12 10:24:30;;;;;;;11.50;8.57;;;15.60;99.90;;;;;;4949117;28;20564;-74
2022/04/12 10:26:57;;;;;;;12.63;8.45;;;15.90;99.90;;;;;;5012326;28;21651;-74
2022/04/12 10:29:23;;;;;;;11.52;8.55;;;16.20;99.90;;;;;;5015762;28;20447;-75
2022/04/12 10:31:57;;;;;;;12.15;8.63;;;16.10;99.90;;;;;;4944522;28;20909;-75
2022/04/12 10:34:23;;;;;;;13.55;8.75;;;;;;;;;;5013568;28;20433;-75
2022/04/12 10:36:56;;;;;;;11.82;8.52;;;16.30;99.90;;;;;;5010554;28;20437;-75
2022/04/12 10:39:26;;;;;;;10.68;8.40;;;;;;;;;;5014909;28;20745;-74
2022/04/12 10:41:54;;;;;;;12.35;8.43;;;16.10;99.90;;;;;;5011826;28;20430;-74
2022/04/12 10:44:21;;;;;;;11.75;8.75;;;;;;;;;;5014154;28;20961;-74
2022/04/12 10:46:49;;;;;;;11.48;7.97;;;16.30;99.90;;;;;;5009928;28;20941;-74
2022/04/12 10:49:20;;;;;;;11.63;8.40;;;16.20;99.90;;;;;;4945854;28;20422;-76
2022/04/12 10:51:54;;;;;;;12.98;8.30;;;16.60;99.90;;;;;;5012624;28;20445;-74
2022/04/12 10:54:31;;;;;;;11.13;8.38;;;16.80;99.90;;;;;;5006094;28;20520;-75
2022/04/12 10:57:16;;;;;;;12.20;8.55;;;16.80;99.90;;;;;;4998791;28;20427;-74
2022/04/12 10:59:48;;;;;;;12.60;8.88;;;16.60;99.90;;;;;;4995699;28;20433;-78
2022/04/12 11:02:14;;;;;;;14.20;8.83;;;16.80;99.90;;;;;;5000951;28;21040;-79
2022/04/12 11:04:40;;;;;;;12.00;8.40;;;16.30;99.90;;;;;;5011573;28;20426;-78
2022/04/12 11:07:51;;;;;;;10.70;8.25;;;16.90;99.90;;;;;;4996662;28;20429;-79
2022/04/12 11:10:16;;;;;;;12.60;8.77;;;16.50;99.90;;;;;;4984196;28;20448;-79
2022/04/12 11:12:44;;;;;;;13.07;9.47;;;16.70;99.90;;;;;;4996936;28;20912;-78
2022/04/12 11:15:24;;;;;;;11.88;8.23;;;17.10;99.90;;;;;;5007169;28;20773;-79
2022/04/12 11:18:13;;;;;;;12.80;7.97;;;17.20;99.90;;;;;;5014626;28;21003;-78
2022/04/12 11:20:46;;;;;;;10.68;8.02;;;17.00;99.90;;;;;;5017784;28;20473;-78
2022/04/12 11:23:14;;;;;;;11.70;8.48;;;17.60;99.90;;;;;;5016872;28;20429;-79
2022/04/12 11:25:51;;;;;;;11.97;7.93;;;17.60;99.90;;;;;;4952783;28;20440;-79
2022/04/12 11:28:24;;;;;;;10.18;7.85;;;17.90;99.90;;;;;;4950221;28;20931;-80
2022/04/12 11:30:56;;;;;;;10.85;8.30;;;17.30;99.90;;;;;;5028881;28;20443;-80
2022/04/12 11:33:29;;;;;;;13.35;8.52;;;17.10;99.90;;;;;;5018076;28;21239;-80
2022/04/12 11:35:55;;;;;;;12.65;8.00;;;;;;;;;;4952030;28;20422;-79
2022/04/12 11:38:23;;;;;;;11.20;8.00;;;17.30;99.90;;;;;;5001098;28;20429;-80
2022/04/12 11:40:50;;;;;;;11.07;8.15;;;17.30;99.90;;;;;;4950838;28;20469;-80
2022/04/12 11:43:23;;;;;;;11.27;7.70;;;;;;;;;;5019938;28;20425;-80
2022/04/12 11:45:53;;;;;;;11.52;7.93;;;;;;;;;;5018249;28;20434;-80
2022/04/12 11:48:21;;;;;;;10.80;7.90;;;17.50;99.90;;;;;;5017832;28;20434;-80
2022/04/12 11:50:52;;;;;;;10.63;8.30;;;17.50;99.90;;;;;;5000781;28;20786;-80
2022/04/12 11:53:18;;;;;;;12.90;7.83;;;;;;;;;;4951418;28;20426;-80
2022/04/12 11:55:47;;;;;;;11.07;8.10;;;17.60;99.90;;;;;;5018458;28;20484;-80
2022/04/12 11:58:14;;;;;;;11.50;8.25;;;;;;;;;;4964635;28;20801;-80
2022/04/12 12:00:40;;;;;;;11.98;8.18;;;;;;;;;;5017160;28;20478;-80
2022/04/12 12:03:15;;;;;;;11.50;8.63;;;17.60;99.90;;;;;;5018518;28;20429;-80
2022/04/12 12:05:41;;;;;;;11.05;7.38;;;;;;;;;;5017697;28;20426;-80
2022/04/12 12:08:07;;;;;;;10.02;6.28;;;;;;;;;;5017057;28;20429;-80
2022/04/12 12:10:36;;;;;;;11.07;7.13;;;;;;;;;;4952582;28;20467;-78
2022/04/12 12:13:06;;;;;;;8.85;6.70;;;18.40;99.90;;;;;;5014890;28;20432;-79
2022/04/12 12:15:33;;;;;;;12.27;6.53;;;18.30;99.90;;;;;;4949721;28;20479;-79
2022/04/12 12:18:05;;;;;;;9.32;6.22;;;;;;;;;;5017492;28;20472;-79
2022/04/12 12:20:32;;;;;;;10.27;6.30;;;18.60;99.90;;;;;;5018978;28;20508;-80
2022/04/12 12:23:04;;;;;;;9.25;6.43;;;18.80;99.90;;;;;;4949633;28;20511;-79
2022/04/12 12:25:48;;;;;;;11.40;6.70;;;19.30;99.90;;;;;;5017574;28;20785;-79
2022/04/12 12:28:18;;;;;;;9.87;6.97;;;18.90;99.90;;;;;;5015934;28;20437;-79
2022/04/12 12:30:59;;;;;;;10.40;7.00;;;19.00;99.90;;;;;;5017499;28;20554;-79
2022/04/12 12:33:34;;;;;;;9.60;6.70;;;19.10;99.90;;;;;;4934359;28;20430;-79
2022/04/12 12:36:01;;;;;;;14.35;8.10;;;;;;;;;;5001092;28;21744;-80
2022/04/12 12:38:29;;;;;;;14.00;7.75;;;18.10;99.90;;;;;;4920237;28;20468;-79
2022/04/12 12:40:57;;;;;;;11.95;8.57;;;18.10;99.90;;;;;;5017096;28;20440;-79
2022/04/12 12:43:23;;;;;;;10.32;8.02;;;;;;;;;;5002458;28;20458;-79
2022/04/12 12:45:50;;;;;;;11.73;8.05;;;18.50;99.90;;;;;;5015282;28;20438;-81
2022/04/12 12:48:16;;;;;;;12.25;8.65;;;19.10;99.90;;;;;;4988703;28;20457;-80
2022/04/12 12:50:44;;;;;;;12.77;8.43;;;19.00;99.90;;;;;;4988982;28;20449;-80
2022/04/12 12:53:12;;;;;;;11.68;8.88;;;18.70;99.90;;;;;;4950964;28;20452;-79
2022/04/12 12:55:44;;;;;;;15.27;9.27;;;18.50;99.90;;;;;;5001585;28;20429;-80
2022/04/12 12:58:13;;;;;;;12.55;8.93;;;18.60;99.90;;;;;;5002188;28;20470;-80
2022/04/12 13:00:40;;;;;;;13.77;8.98;;;;;;;;;;4999600;28;21012;-80
2022/04/12 13:03:14;;;;;;;13.07;9.27;;;;;;;;;;5014296;28;20924;-80
2022/04/12 13:05:43;;;;;;;12.15;8.90;;;;;;;;;;5001877;28;20441;-80
2022/04/12 13:08:09;;;;;;;18.55;8.73;;;;;;;;;;4950360;28;20426;-78
2022/04/12 13:10:38;;;;;;;21.85;9.27;;;;;;;;;;4979080;28;20426;-77
2022/04/12 13:13:08;;;;;;;14.05;9.32;;;;;;;;;;5018016;28;20422;-78
2022/04/12 13:15:34;;;;;;;15.60;9.27;;;19.00;99.90;;;;;;5016855;28;20497;-78
2022/04/12 13:18:00;;;;;;;13.20;8.88;;;;;;;;;;5008674;28;20535;-79
2022/04/12 13:20:26;;;;;;;13.48;10.00;;;18.40;99.90;;;;;;5012953;28;20528;-79
2022/04/12 13:22:53;;;;;;;13.50;9.73;;;;;;;;;;4950958;28;20457;-78
2022/04/12 13:25:19;;;;;;;14.60;9.80;;;;;;;;;;5018388;28;20519;-78
2022/04/12 13:27:46;;;;;;;15.18;9.55;;;18.60;99.90;;;;;;4998451;28;20426;-79
2022/04/12 13:30:12;;;;;;;14.35;9.15;;;18.90;99.90;;;;;;5015735;28;20432;-78
2022/04/12 13:32:39;;;;;;;15.05;9.00;;;;;;;;;;5003566;28;20438;-78
2022/04/12 13:35:07;;;;;;;14.23;9.35;;;18.70;99.90;;;;;;5015119;28;20441;-78
2022/04/12 13:37:33;;;;;;;13.82;9.13;;;;;;;;;;5016972;28;20441;-82
2022/04/12 13:39:59;;;;;;;14.50;9.75;;;18.70;99.90;;;;;;5012151;28;20479;-80
2022/04/12 13:42:25;;;;;;;14.55;9.40;;;;;;;;;;4949502;28;20426;-77
2022/04/12 13:44:53;;;;;;;13.65;9.60;;;18.90;99.90;;;;;;4949350;28;20754;-79
2022/04/12 13:47:19;;;;;;;16.80;9.60;;;19.10;99.90;;;;;;4929303;28;20434;-79
2022/04/12 13:49:45;;;;;;;15.13;9.57;;;;;;;;;;4962149;28;20438;-79
2022/04/12 13:52:11;;;;;;;13.32;8.98;;;;;;;;;;4997738;28;20449;-79
2022/04/12 13:54:37;;;;;;;14.23;9.07;;;;;;;;;;4996636;28;20433;-79
2022/04/12 13:57:03;;;;;;;13.73;9.10;;;19.70;99.90;;;;;;4984096;28;20921;-79